Time;durP1;ratioP1;P1;durP2;ratioP2;P2;SDS_P1;SDS_P2;PMS_P1;PMS_P2;Temp;Humidity;BMP_temperature;BMP_pressure;BME280_temperature;BME280_humidity;BME280_pressure;Samples;Min_cycle;Max_cycle;Signal;HPM_P1;HPM_P2
2023/06/08 00:00:16;;;;;;;1.70;1.23;;;19.40;99.90;;;;;;5023741;28;20201;-78
2023/06/08 00:02:44;;;;;;;0.80;0.80;;;19.30;99.90;;;;;;5006223;28;20212;-77
2023/06/08 00:05:13;;;;;;;0.70;0.70;;;19.30;99.90;;;;;;5008536;28;20257;-77
2023/06/08 00:07:41;;;;;;;1.20;1.10;;;19.30;99.90;;;;;;5018932;28;20193;-77
2023/06/08 00:10:11;;;;;;;1.60;1.50;;;19.30;99.90;;;;;;5012555;28;20206;-79
2023/06/08 00:12:39;;;;;;;1.58;1.48;;;19.20;99.90;;;;;;5019266;28;20202;-74
2023/06/08 00:15:09;;;;;;;1.48;1.15;;;19.20;99.90;;;;;;5014153;28;20204;-74
2023/06/08 00:17:38;;;;;;;1.23;1.13;;;19.10;99.90;;;;;;5019382;28;20222;-76
2023/06/08 00:20:09;;;;;;;0.80;0.80;;;19.10;99.90;;;;;;5005864;28;20206;-79
2023/06/08 00:22:37;;;;;;;1.45;1.35;;;19.00;99.90;;;;;;5001299;28;20809;-75
2023/06/08 00:25:06;;;;;;;1.42;1.33;;;19.00;99.90;;;;;;5000531;28;20675;-77
2023/06/08 00:27:36;;;;;;;1.75;1.60;;;19.10;99.90;;;;;;5002352;28;20199;-77
2023/06/08 00:30:05;;;;;;;1.20;1.10;;;19.00;99.90;;;;;;5006537;28;20878;-75
2023/06/08 00:32:34;;;;;;;1.75;1.65;;;19.00;99.90;;;;;;5007137;28;20239;-74
2023/06/08 00:35:02;;;;;;;1.10;1.00;;;19.00;99.90;;;;;;4992800;28;20599;-75
2023/06/08 00:37:30;;;;;;;1.48;1.38;;;19.00;99.90;;;;;;5001839;28;20227;-76
2023/06/08 00:39:58;;;;;;;1.17;1.10;;;19.00;99.90;;;;;;5005890;28;20296;-74
2023/06/08 00:42:26;;;;;;;1.35;1.25;;;18.90;99.90;;;;;;5017160;28;20250;-74
2023/06/08 00:44:55;;;;;;;1.60;1.50;;;18.90;99.90;;;;;;5020656;28;20256;-76
2023/06/08 00:47:23;;;;;;;0.88;0.88;;;18.90;99.90;;;;;;5010480;28;20226;-73
2023/06/08 00:49:51;;;;;;;1.10;1.02;;;18.90;99.90;;;;;;5005110;28;20209;-77
2023/06/08 00:52:21;;;;;;;1.38;1.27;;;18.80;99.90;;;;;;4999474;28;20264;-73
2023/06/08 00:54:50;;;;;;;1.55;1.45;;;18.80;99.90;;;;;;5009239;28;20197;-75
2023/06/08 00:57:19;;;;;;;0.93;0.93;;;18.80;99.90;;;;;;5027346;28;20218;-74
2023/06/08 00:59:49;;;;;;;1.65;1.02;;;18.80;99.90;;;;;;5022299;28;20216;-75
2023/06/08 01:02:20;;;;;;;1.35;0.77;;;18.80;99.90;;;;;;5013561;28;20275;-74
2023/06/08 01:04:50;;;;;;;1.42;1.30;;;18.80;99.90;;;;;;5006226;28;20200;-74
2023/06/08 01:07:27;;;;;;;1.00;1.00;;;18.70;99.90;;;;;;5029777;28;20708;-77
2023/06/08 01:10:02;;;;;;;1.20;1.10;;;18.70;99.90;;;;;;5014662;28;20206;-75
2023/06/08 01:12:36;;;;;;;1.17;1.08;;;18.70;99.90;;;;;;5023525;28;20225;-75
2023/06/08 01:15:13;;;;;;;1.38;1.27;;;18.70;99.90;;;;;;5022893;28;20659;-74
2023/06/08 01:17:52;;;;;;;1.20;1.10;;;18.70;99.90;;;;;;5033282;28;20279;-74
2023/06/08 01:20:32;;;;;;;1.08;0.98;;;18.70;99.90;;;;;;5030094;28;20219;-73
2023/06/08 01:23:09;;;;;;;1.25;1.10;;;18.70;99.90;;;;;;5013443;28;20717;-73
2023/06/08 01:25:41;;;;;;;0.82;0.82;;;18.70;99.90;;;;;;5031988;28;20284;-77
2023/06/08 01:28:13;;;;;;;2.05;0.90;;;18.70;99.90;;;;;;5029311;28;20200;-74
2023/06/08 01:30:43;;;;;;;0.80;0.70;;;18.70;99.90;;;;;;5030942;28;20214;-74
2023/06/08 01:33:13;;;;;;;1.10;1.00;;;18.80;99.90;;;;;;5019011;28;20201;-74
2023/06/08 01:35:42;;;;;;;1.42;1.25;;;18.70;99.90;;;;;;5015865;28;20236;-74
2023/06/08 01:38:18;;;;;;;1.35;1.25;;;18.70;99.90;;;;;;5014677;28;20640;-74
2023/06/08 01:40:51;;;;;;;1.33;0.98;;;18.70;99.90;;;;;;5011533;28;20208;-73
2023/06/08 01:43:21;;;;;;;0.98;0.98;;;18.60;99.90;;;;;;5010771;28;20228;-74
2023/06/08 01:45:53;;;;;;;1.15;1.00;;;18.60;99.90;;;;;;5014759;28;20308;-74
2023/06/08 01:48:23;;;;;;;0.70;0.70;;;18.50;99.90;;;;;;5029326;28;20248;-74
2023/06/08 01:50:52;;;;;;;0.70;0.70;;;18.50;99.90;;;;;;5009674;28;20190;-73
2023/06/08 01:53:20;;;;;;;1.85;1.23;;;18.40;99.90;;;;;;5013106;28;20208;-74
2023/06/08 01:55:51;;;;;;;1.63;1.00;;;18.40;99.90;;;;;;5012862;28;20218;-74
2023/06/08 01:58:18;;;;;;;1.15;1.05;;;18.40;99.90;;;;;;5012683;28;20218;-74
2023/06/08 02:00:46;;;;;;;0.88;0.70;;;18.30;99.90;;;;;;5030456;28;20212;-74
2023/06/08 02:03:14;;;;;;;1.20;1.05;;;18.30;99.90;;;;;;5028110;28;20638;-74
2023/06/08 02:05:42;;;;;;;1.02;1.00;;;18.30;99.90;;;;;;5028929;28;20304;-73
2023/06/08 02:08:10;;;;;;;1.38;1.27;;;18.30;99.90;;;;;;5031933;28;20204;-74
2023/06/08 02:10:38;;;;;;;1.60;1.10;;;18.30;99.90;;;;;;5032480;28;20217;-73
2023/06/08 02:13:07;;;;;;;0.70;0.70;;;18.30;99.90;;;;;;5032284;28;20200;-73
2023/06/08 02:15:35;;;;;;;0.80;0.68;;;18.20;99.90;;;;;;5032035;28;20749;-73
2023/06/08 02:18:05;;;;;;;1.35;1.15;;;18.20;99.90;;;;;;5031903;28;20660;-73
2023/06/08 02:20:34;;;;;;;0.80;0.80;;;18.20;99.90;;;;;;5027129;28;20284;-76
2023/06/08 02:23:02;;;;;;;1.10;1.00;;;18.20;99.90;;;;;;5012706;28;20567;-74
2023/06/08 02:25:30;;;;;;;0.77;0.77;;;18.20;99.90;;;;;;5029152;28;20221;-74
2023/06/08 02:27:58;;;;;;;1.40;0.95;;;18.20;99.90;;;;;;5019593;28;20230;-73
2023/06/08 02:30:27;;;;;;;3.25;1.15;;;18.10;99.90;;;;;;5012454;28;20622;-72
2023/06/08 02:32:55;;;;;;;1.65;1.55;;;18.20;99.90;;;;;;5009471;28;20209;-73
2023/06/08 02:35:23;;;;;;;0.95;0.95;;;18.10;99.90;;;;;;5008552;28;20221;-74
2023/06/08 02:37:51;;;;;;;1.73;1.13;;;18.10;99.90;;;;;;5010040;28;20214;-73
2023/06/08 02:40:19;;;;;;;1.13;1.02;;;18.10;99.90;;;;;;5010137;28;20193;-73
2023/06/08 02:42:47;;;;;;;1.10;1.00;;;18.00;99.90;;;;;;5010307;28;20224;-74
2023/06/08 02:45:15;;;;;;;1.85;1.23;;;18.00;99.90;;;;;;5010358;28;20288;-74
2023/06/08 02:47:44;;;;;;;1.00;0.82;;;17.90;99.90;;;;;;5013965;28;20561;-74
2023/06/08 02:50:12;;;;;;;1.25;1.08;;;17.90;99.90;;;;;;5016675;28;20743;-77
2023/06/08 02:52:40;;;;;;;1.80;1.60;;;17.90;99.90;;;;;;5019352;28;20226;-74
2023/06/08 02:55:08;;;;;;;1.65;1.38;;;17.80;99.90;;;;;;5008807;28;20268;-75
2023/06/08 02:57:38;;;;;;;1.05;0.95;;;17.80;99.90;;;;;;5010918;28;20205;-75
2023/06/08 03:00:08;;;;;;;0.80;0.80;;;17.80;99.90;;;;;;5010546;28;20639;-77
2023/06/08 03:02:36;;;;;;;1.63;1.52;;;17.80;99.90;;;;;;5008544;28;20204;-74
2023/06/08 03:05:06;;;;;;;0.82;0.82;;;17.90;99.90;;;;;;5002890;28;20219;-74
2023/06/08 03:07:36;;;;;;;1.00;0.90;;;17.80;99.90;;;;;;5011166;28;20201;-76
2023/06/08 03:10:05;;;;;;;0.90;0.90;;;17.80;99.90;;;;;;5010546;28;20208;-74
2023/06/08 03:12:33;;;;;;;1.42;1.10;;;17.80;99.90;;;;;;5010028;28;20678;-74
2023/06/08 03:15:01;;;;;;;1.45;1.13;;;17.80;99.90;;;;;;5011362;28;20215;-74
2023/06/08 03:17:28;;;;;;;2.15;1.00;;;17.70;99.90;;;;;;5008372;28;20551;-74
2023/06/08 03:19:59;;;;;;;1.38;1.27;;;17.80;99.90;;;;;;5022582;28;20208;-75
2023/06/08 03:22:29;;;;;;;1.75;1.33;;;17.80;99.90;;;;;;5011751;28;20251;-76
2023/06/08 03:24:58;;;;;;;2.30;1.45;;;17.80;99.90;;;;;;5008729;28;20257;-76
2023/06/08 03:27:26;;;;;;;1.25;1.15;;;17.80;99.90;;;;;;5008656;28;20221;-75
2023/06/08 03:29:54;;;;;;;1.20;0.77;;;17.90;99.90;;;;;;5008133;28;20209;-75
2023/06/08 03:32:22;;;;;;;1.20;0.88;;;17.80;99.90;;;;;;5009215;28;20213;-75
2023/06/08 03:34:50;;;;;;;1.00;0.80;;;17.80;99.90;;;;;;5008942;28;20276;-75
2023/06/08 03:37:18;;;;;;;1.20;1.10;;;17.80;99.90;;;;;;5008692;28;20244;-75
2023/06/08 03:39:47;;;;;;;1.00;0.95;;;17.70;99.90;;;;;;5011127;28;20232;-75
2023/06/08 03:42:15;;;;;;;0.90;0.90;;;17.70;99.90;;;;;;5009774;28;20208;-75
2023/06/08 03:44:44;;;;;;;1.10;1.00;;;17.80;99.90;;;;;;5015758;28;20209;-75
2023/06/08 03:47:12;;;;;;;1.20;1.00;;;17.80;99.90;;;;;;5014492;28;20228;-76
2023/06/08 03:49:40;;;;;;;1.27;1.17;;;17.80;99.90;;;;;;5009453;28;20201;-78
2023/06/08 03:52:08;;;;;;;1.30;1.10;;;17.70;99.90;;;;;;5010545;28;20200;-76
2023/06/08 03:54:36;;;;;;;1.30;1.08;;;17.70;99.90;;;;;;5013114;28;20208;-78
2023/06/08 03:57:06;;;;;;;1.40;1.20;;;17.70;99.90;;;;;;5007396;28;20279;-77
2023/06/08 03:59:34;;;;;;;1.50;1.40;;;17.70;99.90;;;;;;5007898;28;20704;-75
2023/06/08 04:02:02;;;;;;;0.68;0.60;;;17.70;99.90;;;;;;5005764;28;20277;-76
2023/06/08 04:04:30;;;;;;;1.20;1.10;;;17.70;99.90;;;;;;5008379;28;20201;-75
2023/06/08 04:07:00;;;;;;;1.25;1.15;;;17.70;99.90;;;;;;5007301;28;20263;-75
2023/06/08 04:09:28;;;;;;;1.23;1.13;;;17.70;99.90;;;;;;5007052;28;20198;-79
2023/06/08 04:11:56;;;;;;;0.90;0.90;;;17.70;99.90;;;;;;5007416;28;20205;-77
2023/06/08 04:14:25;;;;;;;0.70;0.70;;;17.70;99.90;;;;;;5012390;28;20872;-76
2023/06/08 04:16:53;;;;;;;1.42;1.33;;;17.70;99.90;;;;;;5028157;28;20225;-78
2023/06/08 04:19:22;;;;;;;1.23;1.00;;;17.60;99.90;;;;;;5029676;28;20204;-76
2023/06/08 04:21:56;;;;;;;1.10;1.00;;;17.60;99.90;;;;;;5022286;28;20220;-74
2023/06/08 04:24:24;;;;;;;0.82;0.80;;;17.60;99.90;;;;;;5021710;28;20200;-77
2023/06/08 04:26:52;;;;;;;1.58;1.48;;;17.60;99.90;;;;;;5036136;28;20267;-77
2023/06/08 04:29:21;;;;;;;1.58;1.48;;;17.60;99.90;;;;;;5023187;28;20626;-76
2023/06/08 04:31:51;;;;;;;0.93;0.90;;;17.60;99.90;;;;;;5017381;28;20296;-76
2023/06/08 04:34:19;;;;;;;1.10;1.00;;;17.50;99.90;;;;;;5027318;28;20256;-76
2023/06/08 04:36:47;;;;;;;0.80;0.80;;;17.50;99.90;;;;;;5010580;28;20240;-76
2023/06/08 04:39:16;;;;;;;1.00;1.00;;;17.60;99.90;;;;;;5016509;28;20224;-76
2023/06/08 04:41:46;;;;;;;1.50;1.40;;;17.50;99.90;;;;;;5024527;28;20204;-76
2023/06/08 04:44:18;;;;;;;1.10;1.08;;;17.50;99.90;;;;;;5017098;28;20220;-76
2023/06/08 04:46:47;;;;;;;1.10;1.00;;;17.50;99.90;;;;;;5016686;28;20231;-76
2023/06/08 04:49:16;;;;;;;1.30;1.20;;;17.50;99.90;;;;;;5017003;28;20201;-77
2023/06/08 04:51:46;;;;;;;1.50;1.13;;;17.50;99.90;;;;;;5016957;28;20205;-75
2023/06/08 04:54:15;;;;;;;1.30;1.20;;;17.40;99.90;;;;;;5022602;28;20291;-76
2023/06/08 04:56:45;;;;;;;1.65;1.52;;;17.40;99.90;;;;;;5026808;28;20228;-75
2023/06/08 04:59:13;;;;;;;1.00;0.73;;;17.40;99.90;;;;;;5022112;28;20216;-75
2023/06/08 05:01:41;;;;;;;1.27;1.10;;;17.40;99.90;;;;;;5020358;28;20340;-77
2023/06/08 05:04:09;;;;;;;0.95;0.80;;;17.30;99.90;;;;;;5023798;28;20213;-76
2023/06/08 05:06:39;;;;;;;0.90;0.80;;;17.30;99.90;;;;;;5016326;28;20225;-74
2023/06/08 05:09:07;;;;;;;1.55;1.33;;;17.30;99.90;;;;;;5016704;28;20197;-76
2023/06/08 05:11:35;;;;;;;1.10;1.00;;;17.30;99.90;;;;;;5033647;28;20208;-75
2023/06/08 05:14:03;;;;;;;1.58;1.25;;;17.30;99.90;;;;;;5036768;28;20208;-76
2023/06/08 05:16:31;;;;;;;1.35;1.25;;;17.30;99.90;;;;;;5036715;28;20227;-76
2023/06/08 05:18:59;;;;;;;2.45;1.92;;;17.40;99.90;;;;;;5035940;28;20236;-75
2023/06/08 05:21:27;;;;;;;1.52;1.40;;;17.40;99.90;;;;;;5036540;28;20200;-78
2023/06/08 05:23:56;;;;;;;1.25;1.15;;;17.40;99.90;;;;;;5034309;28;20227;-79
2023/06/08 05:26:25;;;;;;;0.90;0.90;;;17.40;99.90;;;;;;5033657;28;20231;-75
2023/06/08 05:28:53;;;;;;;1.45;1.08;;;17.40;99.90;;;;;;5033176;28;20204;-76
2023/06/08 05:31:21;;;;;;;1.13;0.90;;;17.40;99.90;;;;;;5033525;28;20204;-75
2023/06/08 05:33:49;;;;;;;1.65;1.55;;;17.50;99.90;;;;;;5033526;28;20205;-75
2023/06/08 05:36:17;;;;;;;1.23;1.10;;;17.50;99.90;;;;;;5028345;28;20275;-77
2023/06/08 05:38:45;;;;;;;1.48;1.35;;;17.60;99.90;;;;;;5013317;28;20201;-76
2023/06/08 05:41:14;;;;;;;2.47;0.95;;;17.50;99.90;;;;;;5026695;28;20216;-77
2023/06/08 05:43:43;;;;;;;1.60;1.50;;;17.50;99.90;;;;;;5024342;28;20212;-78
2023/06/08 05:46:11;;;;;;;1.02;0.82;;;17.50;99.90;;;;;;5026252;28;20628;-76
2023/06/08 05:48:39;;;;;;;1.55;1.45;;;17.60;99.90;;;;;;5032664;28;20667;-76
2023/06/08 05:51:07;;;;;;;2.38;1.70;;;17.70;99.90;;;;;;5021691;28;20572;-76
2023/06/08 05:53:36;;;;;;;1.00;0.90;;;17.70;99.90;;;;;;5013346;28;20200;-76
2023/06/08 05:56:04;;;;;;;1.17;1.00;;;17.80;99.90;;;;;;5024995;28;20307;-76
2023/06/08 05:58:33;;;;;;;0.98;0.90;;;17.70;99.90;;;;;;5032703;28;20192;-76
2023/06/08 06:01:16;;;;;;;1.45;1.35;;;17.80;99.90;;;;;;5032972;28;20214;-75
2023/06/08 06:03:45;;;;;;;1.25;1.15;;;17.80;99.90;;;;;;5033408;28;20603;-75
2023/06/08 06:06:13;;;;;;;1.30;1.02;;;17.90;99.90;;;;;;5019601;28;20642;-75
2023/06/08 06:08:41;;;;;;;0.80;0.75;;;17.80;99.90;;;;;;5012638;28;20213;-76
2023/06/08 06:11:11;;;;;;;1.05;0.95;;;17.80;99.90;;;;;;5025901;28;20674;-76
2023/06/08 06:13:40;;;;;;;1.67;1.30;;;17.80;99.90;;;;;;5016824;28;20211;-75
2023/06/08 06:16:09;;;;;;;1.35;1.25;;;17.80;99.90;;;;;;5023963;28;20698;-72
2023/06/08 06:18:39;;;;;;;1.67;1.23;;;17.80;99.90;;;;;;5023367;28;20204;-74
2023/06/08 06:21:07;;;;;;;0.82;0.80;;;17.80;99.90;;;;;;5016069;28;20275;-73
2023/06/08 06:23:35;;;;;;;0.90;0.85;;;17.90;99.90;;;;;;5016114;28;20671;-72
2023/06/08 06:26:04;;;;;;;1.65;1.55;;;17.90;99.90;;;;;;5015086;28;20220;-73
2023/06/08 06:28:33;;;;;;;1.10;1.00;;;18.00;99.90;;;;;;5016038;28;20207;-72
2023/06/08 06:31:02;;;;;;;1.20;1.10;;;18.00;99.90;;;;;;5014992;28;20210;-72
2023/06/08 06:33:30;;;;;;;0.85;0.85;;;18.00;99.90;;;;;;5016821;28;20197;-73
2023/06/08 06:35:58;;;;;;;1.48;1.38;;;18.10;99.90;;;;;;5019441;28;20236;-72
2023/06/08 06:38:26;;;;;;;2.13;1.58;;;18.20;99.90;;;;;;5011441;28;20208;-73
2023/06/08 06:40:54;;;;;;;1.08;0.93;;;18.30;99.90;;;;;;5021674;28;20220;-72
2023/06/08 06:43:24;;;;;;;1.40;0.75;;;18.40;99.90;;;;;;5019534;28;20757;-73
2023/06/08 06:45:52;;;;;;;1.10;1.00;;;18.50;99.90;;;;;;5021473;28;20707;-74
2023/06/08 06:48:22;;;;;;;1.20;1.10;;;18.50;99.90;;;;;;5011414;28;20197;-75
2023/06/08 06:50:53;;;;;;;1.38;1.27;;;18.60;99.90;;;;;;5011954;28;20567;-74
2023/06/08 06:53:21;;;;;;;1.15;1.05;;;18.60;99.90;;;;;;5017765;28;20656;-72
2023/06/08 06:55:49;;;;;;;1.42;1.33;;;18.60;99.90;;;;;;5002637;28;20584;-73
2023/06/08 06:58:18;;;;;;;1.85;1.75;;;18.70;99.90;;;;;;5015642;28;20198;-73
2023/06/08 07:00:46;;;;;;;1.15;1.05;;;18.60;99.90;;;;;;5011114;28;20241;-73
2023/06/08 07:03:16;;;;;;;1.33;1.23;;;18.60;99.90;;;;;;5024393;28;20204;-73
2023/06/08 07:05:46;;;;;;;1.45;1.35;;;18.70;99.90;;;;;;5030431;28;20710;-73
2023/06/08 07:08:14;;;;;;;1.42;1.30;;;18.80;99.90;;;;;;5012491;28;20285;-74
2023/06/08 07:10:42;;;;;;;0.82;0.82;;;18.90;99.90;;;;;;5022388;28;20694;-75
2023/06/08 07:13:09;;;;;;;1.38;1.27;;;19.20;99.90;;;;;;5030932;28;20197;-73
2023/06/08 07:15:41;;;;;;;1.17;1.08;;;19.60;99.90;;;;;;5030777;28;20217;-73
2023/06/08 07:18:09;;;;;;;1.40;1.30;;;20.00;99.90;;;;;;5015262;28;20201;-74
2023/06/08 07:20:37;;;;;;;2.15;1.50;;;20.50;99.90;;;;;;5030487;28;20608;-74
2023/06/08 07:23:07;;;;;;;1.30;1.20;;;20.80;99.90;;;;;;5030944;28;20251;-72
2023/06/08 07:25:55;;;;;;;1.42;1.33;;;21.10;99.90;;;;;;5030795;28;20268;-73
2023/06/08 07:28:43;;;;;;;1.30;1.20;;;21.20;99.90;;;;;;5030398;28;20193;-73
2023/06/08 07:31:11;;;;;;;1.40;1.30;;;21.50;99.90;;;;;;5018800;28;20199;-71
2023/06/08 07:33:39;;;;;;;1.00;0.90;;;21.50;99.90;;;;;;5027065;28;20212;-71
2023/06/08 07:36:07;;;;;;;0.82;0.82;;;21.60;99.90;;;;;;5022298;28;20238;-72
2023/06/08 07:38:36;;;;;;;2.10;1.60;;;21.70;99.90;;;;;;5010599;28;20203;-69
2023/06/08 07:41:04;;;;;;;0.82;0.82;;;21.80;99.90;;;;;;5021131;28;20237;-69
2023/06/08 07:43:32;;;;;;;1.10;1.00;;;21.70;99.90;;;;;;5030709;28;20202;-69
2023/06/08 07:46:00;;;;;;;1.55;1.45;;;21.60;99.90;;;;;;5030255;28;20229;-69
2023/06/08 07:48:27;;;;;;;1.42;0.90;;;21.50;99.90;;;;;;5015723;28;20249;-70
2023/06/08 07:50:56;;;;;;;0.90;0.90;;;21.30;99.90;;;;;;5028152;28;20193;-71
2023/06/08 07:53:25;;;;;;;1.15;1.05;;;21.30;99.90;;;;;;5030511;28;20194;-71
2023/06/08 07:55:54;;;;;;;1.58;1.48;;;21.20;99.90;;;;;;5030088;28;20225;-68
2023/06/08 07:58:22;;;;;;;1.10;0.90;;;21.10;99.90;;;;;;5030204;28;20197;-71
2023/06/08 08:00:50;;;;;;;1.02;0.93;;;21.00;99.90;;;;;;5030189;28;20230;-74
2023/06/08 08:03:18;;;;;;;1.20;1.10;;;21.10;99.90;;;;;;5017526;28;20627;-72
2023/06/08 08:05:48;;;;;;;1.35;0.95;;;21.40;99.90;;;;;;5018285;28;20280;-73
2023/06/08 08:08:16;;;;;;;1.33;1.23;;;21.80;99.90;;;;;;5009783;28;20204;-70
2023/06/08 08:10:44;;;;;;;2.75;1.13;;;22.20;99.90;;;;;;5026746;28;20197;-69
2023/06/08 08:13:14;;;;;;;0.70;0.70;;;22.40;99.90;;;;;;5026859;28;20572;-72
2023/06/08 08:15:42;;;;;;;1.02;0.80;;;22.60;99.90;;;;;;5010514;28;20225;-71
2023/06/08 08:18:10;;;;;;;0.85;0.85;;;22.90;99.90;;;;;;5022247;28;20245;-70
2023/06/08 08:20:38;;;;;;;0.93;0.70;;;23.00;99.90;;;;;;5030059;28;20683;-68
2023/06/08 08:23:06;;;;;;;2.30;1.80;;;23.10;99.90;;;;;;5029890;28;21057;-68
2023/06/08 08:25:34;;;;;;;1.10;1.10;;;23.20;99.90;;;;;;5029906;28;20233;-69
2023/06/08 08:28:03;;;;;;;1.05;0.95;;;23.30;99.90;;;;;;5029783;28;20685;-70
2023/06/08 08:30:32;;;;;;;1.17;1.08;;;23.40;99.90;;;;;;5023512;28;20203;-68
2023/06/08 08:33:00;;;;;;;1.25;1.10;;;23.60;99.90;;;;;;5011840;28;20662;-70
2023/06/08 08:35:31;;;;;;;1.65;1.05;;;23.70;99.90;;;;;;5015388;28;20310;-69
2023/06/08 08:37:59;;;;;;;1.10;0.80;;;23.70;99.90;;;;;;5009807;28;20221;-70
2023/06/08 08:40:27;;;;;;;0.80;0.70;;;24.00;99.90;;;;;;5023825;28;20201;-69
2023/06/08 08:43:02;;;;;;;1.15;1.00;;;24.30;99.90;;;;;;5029641;28;20230;-70
2023/06/08 08:45:35;;;;;;;1.15;1.05;;;24.40;99.90;;;;;;5029834;28;20261;-73
2023/06/08 08:48:02;;;;;;;2.58;1.42;;;24.40;99.90;;;;;;5029510;28;20579;-70
2023/06/08 08:50:36;;;;;;;1.20;1.10;;;24.60;99.90;;;;;;5014793;28;20654;-72
2023/06/08 08:53:06;;;;;;;1.13;0.80;;;24.80;99.90;;;;;;5028959;28;20206;-72
2023/06/08 08:55:34;;;;;;;1.05;0.95;;;24.70;99.90;;;;;;5027290;28;20238;-69
2023/06/08 08:58:05;;;;;;;2.35;1.67;;;25.00;99.90;;;;;;5012902;28;20287;-71
2023/06/08 09:00:34;;;;;;;1.40;1.27;;;25.10;99.90;;;;;;5024500;28;20250;-73
2023/06/08 09:03:03;;;;;;;2.30;2.10;;;25.20;99.90;;;;;;5014824;28;20282;-70
2023/06/08 09:05:31;;;;;;;1.83;1.73;;;25.10;99.90;;;;;;5019347;28;20226;-74
2023/06/08 09:07:59;;;;;;;1.10;1.05;;;25.00;99.90;;;;;;5015643;28;20207;-69
2023/06/08 09:10:27;;;;;;;1.58;1.48;;;24.90;99.90;;;;;;5033420;28;20206;-72
2023/06/08 09:12:56;;;;;;;1.38;1.27;;;24.90;99.90;;;;;;5033137;28;20191;-69
2023/06/08 09:15:27;;;;;;;1.08;1.08;;;25.00;99.90;;;;;;5033257;28;20242;-70
2023/06/08 09:17:58;;;;;;;1.30;1.23;;;25.20;99.90;;;;;;5033205;28;20215;-69
2023/06/08 09:20:28;;;;;;;0.85;0.85;;;25.30;99.90;;;;;;5024932;28;20207;-69
2023/06/08 09:22:56;;;;;;;1.60;1.50;;;25.40;99.90;;;;;;5024248;28;20285;-70
2023/06/08 09:25:37;;;;;;;0.80;0.80;;;25.70;99.90;;;;;;5024387;28;20230;-68
2023/06/08 09:28:16;;;;;;;1.15;1.00;;;25.90;99.90;;;;;;5022272;28;20209;-71
2023/06/08 09:30:44;;;;;;;1.48;1.38;;;25.70;99.90;;;;;;5013183;28;20229;-70
2023/06/08 09:33:21;;;;;;;1.42;1.33;;;25.90;99.90;;;;;;5013004;28;20228;-75
2023/06/08 09:36:04;;;;;;;1.20;1.10;;;26.20;99.90;;;;;;5020329;28;20236;-76
2023/06/08 09:38:33;;;;;;;0.98;0.88;;;26.40;99.90;;;;;;5012714;28;20690;-69
2023/06/08 09:41:16;;;;;;;1.20;1.10;;;26.60;99.90;;;;;;5031090;28;20219;-74
2023/06/08 09:43:45;;;;;;;1.77;1.05;;;26.60;99.90;;;;;;5032733;28;20278;-70
2023/06/08 09:46:16;;;;;;;1.42;1.33;;;26.80;99.90;;;;;;5032652;28;20274;-72
2023/06/08 09:48:56;;;;;;;1.23;0.93;;;27.00;99.90;;;;;;5050510;28;20227;-73
2023/06/08 09:51:26;;;;;;;1.15;1.05;;;27.00;99.90;;;;;;5032639;28;20215;-72
2023/06/08 09:53:56;;;;;;;0.95;0.75;;;27.00;99.90;;;;;;5023828;28;20227;-73
2023/06/08 09:56:26;;;;;;;1.58;1.48;;;27.30;99.90;;;;;;5019612;28;20290;-70
2023/06/08 09:58:57;;;;;;;1.40;1.30;;;27.50;99.90;;;;;;5021631;28;20201;-72
2023/06/08 10:01:31;;;;;;;1.27;1.10;;;27.60;99.90;;;;;;5012806;28;20583;-73
2023/06/08 10:04:09;;;;;;;1.10;0.80;;;27.90;99.90;;;;;;5020575;28;20208;-72
2023/06/08 10:06:38;;;;;;;3.60;1.65;;;27.80;99.90;;;;;;5012710;28;20224;-71
2023/06/08 10:09:09;;;;;;;1.25;1.15;;;27.90;99.90;;;;;;5014426;28;20848;-70
2023/06/08 10:11:37;;;;;;;1.58;1.48;;;28.30;99.90;;;;;;5031817;28;20258;-72
2023/06/08 10:14:05;;;;;;;1.20;1.10;;;28.40;99.90;;;;;;5032020;28;20745;-71
2023/06/08 10:16:33;;;;;;;0.95;0.80;;;28.60;99.90;;;;;;5032279;28;20242;-71
2023/06/08 10:19:03;;;;;;;1.10;0.90;;;28.80;99.90;;;;;;5022612;28;20209;-76
2023/06/08 10:21:31;;;;;;;1.55;1.45;;;28.90;99.90;;;;;;5012235;28;20212;-74
2023/06/08 10:24:00;;;;;;;1.33;1.23;;;29.00;99.90;;;;;;5012960;28;20240;-71
2023/06/08 10:26:29;;;;;;;1.48;1.25;;;29.30;99.90;;;;;;5023681;28;20291;-72
2023/06/08 10:29:08;;;;;;;1.05;1.00;;;29.30;99.90;;;;;;5015186;28;20207;-71
2023/06/08 10:31:49;;;;;;;1.10;1.00;;;29.00;99.90;;;;;;5021601;28;20197;-71
2023/06/08 10:34:19;;;;;;;1.92;1.45;;;28.80;99.90;;;;;;5022633;28;20204;-74
2023/06/08 10:36:47;;;;;;;1.05;0.98;;;28.80;99.90;;;;;;5011815;28;20688;-76
2023/06/08 10:39:16;;;;;;;1.00;0.90;;;29.00;99.90;;;;;;5011378;28;20887;-71
2023/06/08 10:41:46;;;;;;;1.23;1.13;;;28.90;99.90;;;;;;5017031;28;20228;-73
2023/06/08 10:44:29;;;;;;;1.52;1.42;;;28.80;99.50;;;;;;5023949;28;20248;-72
2023/06/08 10:47:00;;;;;;;1.15;1.05;;;28.70;99.90;;;;;;5011411;28;20558;-72
2023/06/08 10:49:34;;;;;;;1.23;1.10;;;28.80;99.90;;;;;;5011858;28;20205;-72
2023/06/08 10:52:04;;;;;;;1.15;1.05;;;29.00;99.90;;;;;;5011375;28;20199;-72
2023/06/08 10:54:47;;;;;;;1.35;1.25;;;29.30;99.90;;;;;;5019627;28;20656;-73
2023/06/08 10:57:35;;;;;;;2.20;1.63;;;29.30;99.90;;;;;;5011280;28;20312;-71
2023/06/08 11:00:42;;;;;;;0.77;0.77;;;29.70;99.70;;;;;;5015999;28;20197;-72
2023/06/08 11:03:13;;;;;;;0.95;0.90;;;29.70;99.90;;;;;;5011485;28;20213;-75
2023/06/08 11:05:45;;;;;;;1.15;0.98;;;29.70;99.80;;;;;;5010904;28;20256;-72
2023/06/08 11:08:13;;;;;;;1.15;1.10;;;30.10;99.30;;;;;;5010982;28;20203;-72
2023/06/08 11:10:42;;;;;;;1.10;1.10;;;30.20;99.50;;;;;;5025953;28;20669;-74
2023/06/08 11:13:13;;;;;;;1.23;1.13;;;30.50;98.40;;;;;;5028436;28;20204;-71
2023/06/08 11:15:43;;;;;;;1.50;1.40;;;30.30;98.70;;;;;;5010856;28;20228;-73
2023/06/08 11:18:11;;;;;;;2.35;1.02;;;30.40;97.90;;;;;;5019169;28;21087;-73
2023/06/08 11:20:42;;;;;;;0.90;0.90;;;30.60;97.20;;;;;;5017297;28;20281;-72
2023/06/08 11:23:12;;;;;;;1.23;1.13;;;30.30;97.50;;;;;;5019807;28;20217;-71
2023/06/08 11:25:41;;;;;;;1.30;1.20;;;29.50;97.60;;;;;;5010823;28;20581;-72
2023/06/08 11:28:11;;;;;;;1.10;1.00;;;29.40;98.00;;;;;;5018920;28;20209;-75
2023/06/08 11:30:39;;;;;;;1.13;1.02;;;29.50;97.70;;;;;;5016957;28;20204;-72
2023/06/08 11:33:09;;;;;;;1.20;1.10;;;29.90;98.10;;;;;;5021026;28;20240;-72
2023/06/08 11:35:37;;;;;;;0.80;0.80;;;30.40;97.10;;;;;;5015922;28;20240;-72
2023/06/08 11:38:07;;;;;;;1.60;1.50;;;30.40;96.50;;;;;;5010522;28;20209;-71
2023/06/08 11:40:38;;;;;;;1.27;1.17;;;30.60;96.10;;;;;;5024110;28;20212;-71
2023/06/08 11:43:06;;;;;;;2.88;1.30;;;31.10;96.40;;;;;;5012231;28;20673;-70
2023/06/08 11:45:34;;;;;;;1.00;0.90;;;31.30;96.90;;;;;;5016968;28;20236;-72
2023/06/08 11:48:04;;;;;;;1.13;1.03;;;31.30;95.60;;;;;;5018510;28;21150;-69
2023/06/08 11:50:49;;;;;;;1.70;1.60;;;31.10;95.40;;;;;;5020315;28;20616;-71
2023/06/08 11:53:22;;;;;;;1.00;0.90;;;31.50;94.80;;;;;;5018273;28;20644;-71
2023/06/08 11:55:52;;;;;;;1.20;1.13;;;31.70;95.30;;;;;;5016883;28;20641;-73
2023/06/08 11:58:24;;;;;;;1.17;1.07;;;31.50;94.10;;;;;;5013520;28;20677;-72
2023/06/08 12:01:04;;;;;;;0.70;0.60;;;31.30;93.50;;;;;;5022266;28;21076;-71
2023/06/08 12:03:33;;;;;;;1.90;1.00;;;31.10;94.00;;;;;;5008604;28;21213;-72
2023/06/08 12:06:02;;;;;;;1.17;1.07;;;31.10;94.00;;;;;;5018686;28;20600;-76
2023/06/08 12:08:34;;;;;;;1.10;1.00;;;31.20;93.90;;;;;;5009654;28;20720;-72
2023/06/08 12:11:07;;;;;;;1.10;1.00;;;31.70;93.20;;;;;;5010809;28;20287;-73
2023/06/08 12:13:36;;;;;;;1.40;1.20;;;32.40;93.60;;;;;;5022019;28;20618;-71
2023/06/08 12:16:07;;;;;;;1.60;1.50;;;32.00;93.30;;;;;;5013054;28;21014;-73
2023/06/08 12:18:39;;;;;;;1.40;1.20;;;32.00;93.10;;;;;;5021602;28;20626;-72
2023/06/08 12:21:08;;;;;;;0.93;0.93;;;32.20;91.90;;;;;;5012826;28;20691;-71
2023/06/08 12:23:37;;;;;;;0.90;0.80;;;32.50;92.60;;;;;;5010275;28;21229;-72
2023/06/08 12:26:05;;;;;;;1.10;1.00;;;31.50;92.40;;;;;;5017628;28;21333;-74
2023/06/08 12:28:33;;;;;;;1.90;0.90;;;31.50;92.00;;;;;;5009856;28;20619;-73
2023/06/08 12:31:01;;;;;;;1.43;1.33;;;31.80;92.30;;;;;;5018215;28;21003;-72
2023/06/08 12:33:30;;;;;;;0.67;0.57;;;31.50;92.40;;;;;;5015956;28;20623;-75
2023/06/08 12:35:59;;;;;;;1.30;1.20;;;31.50;92.60;;;;;;5022930;28;20656;-72
2023/06/08 12:38:26;;;;;;;1.30;1.20;;;31.00;93.60;;;;;;5013101;28;20640;-71
2023/06/08 12:40:56;;;;;;;1.40;1.37;;;30.60;93.40;;;;;;5021160;28;20251;-71
2023/06/08 12:43:24;;;;;;;1.10;1.00;;;30.20;93.90;;;;;;5030266;28;20667;-72
2023/06/08 12:45:53;;;;;;;0.90;0.80;;;29.70;93.30;;;;;;5021857;28;20786;-73
2023/06/08 12:48:22;;;;;;;1.02;1.02;;;29.30;94.10;;;;;;5016092;28;20205;-73
2023/06/08 12:50:50;;;;;;;1.15;1.05;;;29.00;94.10;;;;;;5025495;28;20203;-73
2023/06/08 12:53:18;;;;;;;1.88;1.77;;;28.70;94.70;;;;;;5025327;28;20616;-71
2023/06/08 12:55:46;;;;;;;1.10;1.00;;;28.60;95.10;;;;;;5024833;28;20224;-70
2023/06/08 12:58:16;;;;;;;1.80;1.05;;;28.50;95.10;;;;;;5014753;28;20205;-72
2023/06/08 13:00:44;;;;;;;1.05;0.95;;;28.10;94.90;;;;;;5013862;28;20225;-71